createdAt,value
2023-02-14T00:00:03.403Z,65284.88
2023-02-14T00:02:38.176Z,67216.56
2023-02-14T00:05:07.341Z,68678.03
2023-02-14T00:07:35.784Z,69171.31
2023-02-14T00:10:04.295Z,70419.81
2023-02-14T00:12:32.754Z,71954.59
2023-02-14T00:15:18.637Z,72978.16
2023-02-14T00:17:48.357Z,73746.06
2023-02-14T00:20:16.865Z,73490.06
2023-02-14T00:22:45.257Z,75538.44
2023-02-14T00:25:13.710Z,76050.72
2023-02-14T00:27:42.092Z,74770.16
2023-02-14T00:30:12.288Z,75794.56
2023-02-14T00:32:41.154Z,75794.56
2023-02-14T00:35:11.934Z,76563.09
2023-02-14T00:37:42.666Z,76050.72
2023-02-14T00:40:11.543Z,79895.28
2023-02-14T00:42:41.292Z,80664.72
2023-02-14T00:45:10.640Z,79382.44
2023-02-14T00:47:39.047Z,78613.28
2023-02-14T00:50:08.195Z,76819.28
2023-02-14T00:52:38.030Z,77588.03
2023-02-14T00:55:06.951Z,80664.72
2023-02-14T00:57:35.261Z,81690.91
2023-02-14T01:00:07.582Z,82717.38
2023-02-14T01:02:35.977Z,83487.44
2023-02-14T01:05:04.465Z,84771.25
2023-02-14T01:07:32.998Z,86055.56
2023-02-14T01:10:02.724Z,85028.06
2023-02-14T01:12:32.043Z,84257.66
2023-02-14T01:15:00.409Z,86055.56
2023-02-14T01:17:29.022Z,86569.41
2023-02-14T01:19:57.575Z,86055.56
2023-02-14T01:22:25.940Z,87597.34
2023-02-14T01:24:54.503Z,86826.34
2023-02-14T01:27:24.761Z,86055.56
2023-02-14T01:29:53.364Z,87340.31
2023-02-14T01:32:21.809Z,87597.34
2023-02-14T01:34:51.761Z,87340.31
2023-02-14T01:37:20.059Z,87854.38
2023-02-14T01:39:48.616Z,88882.69
2023-02-14T01:42:17.378Z,88111.41
2023-02-14T01:45:06.583Z,88368.50
2023-02-14T01:47:41.917Z,87597.34
2023-02-14T01:50:13.279Z,87597.34
2023-02-14T01:52:46.748Z,88111.41
2023-02-14T01:55:20.543Z,89911.31
2023-02-14T01:57:52.741Z,89911.31
2023-02-14T02:00:41.067Z,89654.13
2023-02-14T02:03:10.440Z,89654.13
2023-02-14T02:05:42.684Z,89396.97
2023-02-14T02:08:11.337Z,89911.31
2023-02-14T02:10:39.660Z,90682.97
2023-02-14T02:13:10.726Z,91454.81
2023-02-14T02:15:52.879Z,90682.97
2023-02-14T02:18:28.558Z,90168.50
2023-02-14T02:21:41.490Z,88882.69
2023-02-14T02:24:21.022Z,88882.69
2023-02-14T02:27:27.509Z,89654.13
2023-02-14T02:30:29.390Z,90682.97
2023-02-14T02:33:30.504Z,89139.81
2023-02-14T02:36:12.168Z,88111.41
2023-02-14T02:38:56.611Z,87597.34
2023-02-14T02:41:39.354Z,87854.38
2023-02-14T02:44:16.327Z,88625.56
2023-02-14T02:46:56.895Z,88625.56
2023-02-14T02:49:51.661Z,88625.56
2023-02-14T02:52:46.358Z,86569.41
2023-02-14T02:55:21.257Z,85028.06
2023-02-14T02:57:51.905Z,85798.66
2023-02-14T03:00:23.526Z,84771.25
2023-02-14T03:03:11.758Z,84771.25
2023-02-14T03:05:41.221Z,86055.56
2023-02-14T03:08:11.210Z,87083.34
2023-02-14T03:10:43.632Z,88368.50
2023-02-14T03:13:39.949Z,89911.31
2023-02-14T03:16:31.720Z,89396.97
2023-02-14T03:20:06.057Z,88368.50
2023-02-14T03:22:46.721Z,89396.97
2023-02-14T03:25:29.717Z,89396.97
2023-02-14T03:28:08.934Z,90682.97
2023-02-14T03:30:46.028Z,90940.22
2023-02-14T03:33:24.247Z,91197.50
2023-02-14T03:36:02.027Z,91969.47
2023-02-14T03:38:37.339Z,93256.44
2023-02-14T03:41:12.947Z,91969.47
2023-02-14T03:43:46.728Z,91454.81
2023-02-14T03:46:19.383Z,91197.50
2023-02-14T03:48:50.575Z,90940.22
2023-02-14T03:51:21.593Z,89654.13
2023-02-14T03:53:54.908Z,89139.81
2023-02-14T03:56:33.674Z,89396.97
2023-02-14T03:59:08.702Z,88882.69
2023-02-14T04:01:40.887Z,89139.81
2023-02-14T04:04:10.157Z,89911.31
2023-02-14T04:06:38.597Z,89396.97
2023-02-14T04:09:07.026Z,89396.97
2023-02-14T04:11:38.601Z,88625.56
2023-02-14T04:14:07.471Z,88625.56
2023-02-14T04:16:56.126Z,89139.81
2023-02-14T04:19:23.610Z,88882.69
2023-02-14T04:21:52.365Z,89139.81
2023-02-14T04:24:21.351Z,87597.34
2023-02-14T04:27:12.274Z,88111.41
2023-02-14T04:29:42.412Z,89139.81
2023-02-14T04:32:13.423Z,90168.50
2023-02-14T04:34:41.971Z,89396.97
2023-02-14T04:37:10.559Z,88882.69
2023-02-14T04:39:39.266Z,89139.81
2023-02-14T04:42:09.648Z,89396.97
2023-02-14T04:44:39.446Z,89654.13
2023-02-14T04:47:07.950Z,90168.50
2023-02-14T04:49:36.598Z,89654.13
2023-02-14T04:52:05.577Z,89911.31
2023-02-14T04:54:34.217Z,90168.50
2023-02-14T04:57:02.673Z,90425.72
2023-02-14T04:59:32.531Z,89911.31
2023-02-14T05:02:00.918Z,89396.97
2023-02-14T05:04:29.329Z,88882.69
2023-02-14T05:06:57.690Z,88368.50
2023-02-14T05:09:26.032Z,87597.34
2023-02-14T05:11:54.493Z,86826.34
2023-02-14T05:14:23.202Z,86055.56
2023-02-14T05:16:53.012Z,89139.81
2023-02-14T05:19:21.443Z,89396.97
2023-02-14T05:21:49.844Z,86826.34
2023-02-14T05:24:18.262Z,86055.56
2023-02-14T05:26:46.640Z,85541.78
2023-02-14T05:29:14.947Z,85541.78
2023-02-14T05:31:43.487Z,86055.56
2023-02-14T05:34:13.864Z,86055.56
2023-02-14T05:36:42.191Z,87083.34
2023-02-14T05:39:10.940Z,85541.78
2023-02-14T05:44:06.794Z,85284.91
2023-02-14T05:46:35.187Z,85028.06
2023-02-14T05:49:03.969Z,85541.78
2023-02-14T05:51:33.662Z,85541.78
2023-02-14T05:54:02.207Z,85541.78
2023-02-14T05:56:30.579Z,84000.91
2023-02-14T05:58:58.935Z,84000.91
2023-02-14T06:01:27.825Z,84257.66
2023-02-14T06:03:56.380Z,84000.91
2023-02-14T06:06:24.753Z,85028.06
2023-02-14T06:08:54.639Z,85798.66
2023-02-14T06:11:23.159Z,85284.91
2023-02-14T06:13:51.615Z,86055.56
2023-02-14T06:16:20.081Z,85028.06
2023-02-14T06:18:48.519Z,83230.72
2023-02-14T06:21:17.063Z,81947.50
2023-02-14T06:23:45.418Z,81177.78
2023-02-14T06:26:15.305Z,81947.50
2023-02-14T06:28:43.921Z,82204.09
2023-02-14T06:31:17.997Z,81947.50
2023-02-14T06:33:46.414Z,81947.50
2023-02-14T06:36:14.794Z,81434.31
2023-02-14T06:38:43.190Z,81690.91
2023-02-14T06:41:12.698Z,82974.03
2023-02-14T06:43:42.855Z,84000.91
2023-02-14T06:46:11.770Z,85028.06
2023-02-14T06:48:40.076Z,83744.16
2023-02-14T06:51:08.636Z,82717.38
2023-02-14T06:53:37.085Z,82204.09
2023-02-14T06:56:05.964Z,82460.72
2023-02-14T06:58:34.462Z,82974.03
2023-02-14T07:01:04.717Z,81177.78
2023-02-14T07:03:33.270Z,80921.25
2023-02-14T07:06:01.690Z,82460.72
2023-02-14T07:08:30.026Z,81947.50
2023-02-14T07:10:59.214Z,81947.50
2023-02-14T07:13:27.922Z,82974.03
2023-02-14T07:15:56.483Z,84257.66
2023-02-14T07:18:26.338Z,83744.16
2023-02-14T07:20:54.785Z,85798.66
2023-02-14T07:23:23.298Z,86826.34
2023-02-14T07:25:51.818Z,86312.47
2023-02-14T07:28:20.644Z,87083.34
2023-02-14T07:30:49.204Z,85798.66
2023-02-14T07:33:17.793Z,84771.25
2023-02-14T07:35:47.537Z,85028.06
2023-02-14T07:38:16.025Z,86055.56
2023-02-14T07:40:44.450Z,86312.47
2023-02-14T07:43:12.870Z,87083.34
2023-02-14T07:45:41.242Z,87597.34
2023-02-14T07:48:09.627Z,89139.81
2023-02-14T07:50:37.912Z,88882.69
2023-02-14T07:53:08.655Z,90168.50
2023-02-14T07:55:37.211Z,89654.13
2023-02-14T07:58:05.758Z,89396.97
2023-02-14T08:00:34.398Z,89911.31
2023-02-14T08:03:02.820Z,90682.97
2023-02-14T08:05:31.238Z,91454.81
2023-02-14T08:07:59.778Z,92226.81
2023-02-14T08:10:30.271Z,92999.00
2023-02-14T08:13:01.676Z,93513.91
2023-02-14T08:15:49.614Z,94028.84
2023-02-14T08:18:19.419Z,94801.44
2023-02-14T08:20:49.888Z,96347.13
2023-02-14T08:23:19.493Z,96604.81
2023-02-14T08:25:50.783Z,96862.50
2023-02-14T08:28:22.441Z,96604.81
2023-02-14T08:30:51.508Z,96862.50
2023-02-14T08:33:20.136Z,96862.50
2023-02-14T08:35:48.767Z,97635.72
2023-02-14T08:38:17.235Z,97893.50
2023-02-14T08:40:45.724Z,98409.13
2023-02-14T08:43:15.841Z,98666.94
2023-02-14T08:45:44.940Z,98409.13
2023-02-14T08:48:14.545Z,99698.47
2023-02-14T08:50:43.091Z,99182.69
2023-02-14T08:53:13.587Z,98409.13
2023-02-14T08:55:42.284Z,98409.13
2023-02-14T08:58:10.685Z,98151.31
2023-02-14T09:00:40.817Z,98151.31
2023-02-14T09:03:10.661Z,99440.56
2023-02-14T09:05:39.085Z,99440.56
2023-02-14T09:08:07.899Z,99440.56
2023-02-14T09:10:36.428Z,99440.56
2023-02-14T09:13:05.044Z,99698.47
2023-02-14T09:15:33.780Z,100214.34
2023-02-14T09:18:03.768Z,100472.31
2023-02-14T09:20:32.492Z,100988.31
2023-02-14T09:23:00.917Z,100730.31
2023-02-14T09:25:29.388Z,100730.31
2023-02-14T09:27:58.758Z,100472.31
2023-02-14T09:30:27.459Z,100472.31
2023-02-14T09:32:55.877Z,100214.34
2023-02-14T09:35:43.087Z,100988.31
2023-02-14T09:38:19.055Z,101762.47
2023-02-14T09:40:48.475Z,101246.34
2023-02-14T09:43:25.128Z,101246.34
2023-02-14T09:45:57.664Z,101762.47
2023-02-14T09:48:32.599Z,101246.34
2023-02-14T09:51:06.566Z,99956.41
2023-02-14T09:53:38.265Z,99440.56
2023-02-14T09:56:13.333Z,99182.69
2023-02-14T09:58:50.031Z,99698.47
2023-02-14T10:01:23.767Z,99440.56
2023-02-14T10:04:17.591Z,99182.69
2023-02-14T10:06:53.851Z,98924.81
2023-02-14T10:09:34.565Z,98924.81
2023-02-14T10:12:03.855Z,98924.81
2023-02-14T10:14:40.398Z,98666.94
2023-02-14T10:17:16.434Z,98924.81
2023-02-14T10:19:48.515Z,99182.69
2023-02-14T10:22:22.536Z,99182.69
2023-02-14T10:24:54.511Z,98409.13
2023-02-14T10:27:31.049Z,97893.50
2023-02-14T10:30:00.382Z,96089.47
2023-02-14T10:32:34.229Z,95574.19
2023-02-14T10:35:12.855Z,92999.00
2023-02-14T10:37:56.522Z,91454.81
2023-02-14T10:40:49.156Z,90940.22
2023-02-14T10:43:29.045Z,89139.81
2023-02-14T10:46:07.741Z,84000.91
2023-02-14T10:48:48.199Z,84000.91
2023-02-14T10:51:20.908Z,82204.09
2023-02-14T10:54:02.040Z,78613.28
2023-02-14T10:56:36.526Z,82974.03
2023-02-14T10:59:16.274Z,82204.09
2023-02-14T11:01:45.909Z,77075.53
2023-02-14T11:04:17.192Z,71954.59
2023-02-14T11:06:48.613Z,74258.06
2023-02-14T11:09:18.891Z,77588.03
2023-02-14T11:11:51.857Z,74770.16
2023-02-14T11:14:23.928Z,74514.09
2023-02-14T11:16:53.306Z,66206.69
2023-02-14T11:19:25.974Z,68757.91
2023-02-14T11:21:56.616Z,65241.00
2023-02-14T11:24:32.764Z,61699.81
2023-02-14T11:27:04.086Z,61767.56
2023-02-14T11:29:36.666Z,60739.41
2023-02-14T11:32:10.491Z,59046.34
2023-02-14T11:34:42.660Z,59034.41
2023-02-14T11:37:27.361Z,60002.31
2023-02-14T11:40:00.515Z,58237.97
2023-02-14T11:42:41.772Z,58241.97
2023-02-14T11:45:29.222Z,58347.47
2023-02-14T11:48:24.796Z,58226.03
2023-02-14T11:51:04.373Z,58409.19
2023-02-14T11:53:45.806Z,58761.59
2023-02-14T11:56:17.780Z,57423.81
2023-02-14T11:58:51.695Z,57358.13
2023-02-14T12:01:26.315Z,57388.00
2023-02-14T12:03:56.974Z,57115.31
2023-02-14T12:06:27.292Z,57105.38
2023-02-14T12:09:12.545Z,56156.19
2023-02-14T12:11:42.480Z,56203.94
2023-02-14T12:14:23.437Z,56209.91
2023-02-14T12:17:00.576Z,56299.44
2023-02-14T12:19:40.390Z,56355.16
2023-02-14T12:22:14.351Z,56466.59
2023-02-14T12:24:51.134Z,56369.09
2023-02-14T12:27:25.877Z,56235.78
2023-02-14T12:30:00.995Z,56066.66
2023-02-14T12:32:32.514Z,55989.06
2023-02-14T12:35:07.772Z,56315.38
2023-02-14T12:37:50.835Z,55706.56
2023-02-14T12:40:33.238Z,55879.66
2023-02-14T12:43:43.985Z,55348.50
2023-02-14T12:46:24.199Z,55272.91
2023-02-14T12:49:14.306Z,55253.03
2023-02-14T12:51:51.796Z,55260.97
2023-02-14T12:54:37.715Z,55030.25
2023-02-14T12:57:19.163Z,54918.88
2023-02-14T13:00:00.473Z,54895.00
2023-02-14T13:02:53.057Z,54763.75
2023-02-14T13:05:29.358Z,54731.94
2023-02-14T13:08:17.329Z,54755.78
2023-02-14T13:10:56.103Z,54658.34
2023-02-14T13:13:34.417Z,54646.41
2023-02-14T13:16:15.672Z,54473.41
2023-02-14T13:18:52.260Z,54401.81
2023-02-14T13:21:25.773Z,54405.78
2023-02-14T13:23:59.355Z,54220.84
2023-02-14T13:26:32.753Z,54157.22
2023-02-14T13:29:05.418Z,54012.06
2023-02-14T13:31:35.769Z,53944.47
2023-02-14T13:34:09.519Z,53868.91
2023-02-14T13:36:38.760Z,53829.13
2023-02-14T13:39:08.203Z,53801.31
2023-02-14T13:41:41.955Z,53713.81
2023-02-14T13:44:10.420Z,53686.00
2023-02-14T13:46:53.813Z,53686.00
2023-02-14T13:49:32.763Z,53672.06
2023-02-14T13:52:03.866Z,53654.19
2023-02-14T13:54:41.709Z,53620.38
2023-02-14T13:57:28.146Z,53582.59
2023-02-14T14:00:36.642Z,53594.53
2023-02-14T14:03:08.148Z,53602.47
2023-02-14T14:06:01.735Z,53554.78
2023-02-14T14:08:54.508Z,53578.63
2023-02-14T14:12:02.034Z,53564.72
2023-02-14T14:14:39.909Z,53586.56
2023-02-14T14:17:29.773Z,53572.66
2023-02-14T14:19:59.768Z,53570.69
2023-02-14T14:22:28.970Z,53576.63
2023-02-14T14:25:00.334Z,53584.59
2023-02-14T14:27:33.353Z,53594.53
2023-02-14T14:30:03.662Z,53574.66
2023-02-14T14:32:34.597Z,53602.47
2023-02-14T14:35:08.367Z,53606.47
2023-02-14T14:37:46.588Z,53588.56
2023-02-14T14:40:25.000Z,53616.41
2023-02-14T14:42:55.457Z,53594.53
2023-02-14T14:45:26.799Z,53604.47
2023-02-14T14:47:58.091Z,53600.50
2023-02-14T14:50:30.438Z,53606.47
2023-02-14T14:53:02.914Z,53600.50
2023-02-14T14:55:34.839Z,53634.28
2023-02-14T14:58:05.678Z,53668.09
2023-02-14T15:00:36.093Z,53624.34
2023-02-14T15:03:09.046Z,53624.34
2023-02-14T15:05:40.890Z,53640.25
2023-02-14T15:08:22.543Z,53662.13
2023-02-14T15:10:55.601Z,53687.97
2023-02-14T15:13:50.989Z,53664.13
2023-02-14T15:16:26.601Z,53680.03
2023-02-14T15:18:58.423Z,53697.91
2023-02-14T15:21:29.520Z,53707.84
2023-02-14T15:23:58.347Z,53691.94
2023-02-14T15:26:31.614Z,53693.94
2023-02-14T15:29:02.324Z,53705.88
2023-02-14T15:31:34.562Z,53741.66
2023-02-14T15:34:04.922Z,53743.66
2023-02-14T15:36:36.506Z,53719.78
2023-02-14T15:39:08.226Z,53735.69
2023-02-14T15:41:37.324Z,53761.53
2023-02-14T15:44:06.352Z,53761.53
2023-02-14T15:46:38.473Z,53753.59
2023-02-14T15:49:11.400Z,53731.72
2023-02-14T15:51:43.453Z,53755.56
2023-02-14T15:54:22.514Z,53777.44
2023-02-14T15:56:53.907Z,53781.41
2023-02-14T15:59:26.557Z,53769.50
2023-02-14T16:01:59.021Z,53789.38
2023-02-14T16:04:30.095Z,53817.22
2023-02-14T16:07:09.679Z,53813.22
2023-02-14T16:09:38.567Z,53843.06
2023-02-14T16:12:25.544Z,53829.13
2023-02-14T16:15:03.216Z,53821.19
2023-02-14T16:17:35.722Z,53823.16
2023-02-14T16:20:23.706Z,53868.91
2023-02-14T16:22:54.508Z,53894.75
2023-02-14T16:25:22.937Z,53864.94
2023-02-14T16:27:51.464Z,53904.69
2023-02-14T16:30:20.918Z,53916.63
2023-02-14T16:32:53.731Z,53908.66
2023-02-14T16:35:23.021Z,53952.41
2023-02-14T16:37:53.983Z,53948.44
2023-02-14T16:40:26.672Z,53952.41
2023-02-14T16:42:55.989Z,53952.41
2023-02-14T16:45:24.378Z,53974.28
2023-02-14T16:47:55.463Z,54010.06
2023-02-14T16:50:24.200Z,54022.00
2023-02-14T16:52:56.037Z,54047.84
2023-02-14T16:55:28.910Z,54053.81
2023-02-14T16:57:58.581Z,54083.66
2023-02-14T17:00:28.733Z,54081.66
2023-02-14T17:03:04.654Z,54099.56
2023-02-14T17:05:34.230Z,54123.41
2023-02-14T17:08:05.943Z,54127.38
2023-02-14T17:10:35.622Z,54155.22
2023-02-14T17:13:06.851Z,54143.28
2023-02-14T17:15:36.297Z,54206.94
2023-02-14T17:18:11.395Z,54206.94
2023-02-14T17:20:40.654Z,54232.78
2023-02-14T17:23:10.787Z,54278.50
2023-02-14T17:25:39.835Z,54266.59
2023-02-14T17:28:08.451Z,54222.84
2023-02-14T17:30:37.017Z,54286.47
2023-02-14T17:33:05.763Z,54292.44
2023-02-14T17:35:35.541Z,54332.19
2023-02-14T17:38:04.662Z,54383.91
2023-02-14T17:40:35.039Z,54377.94
2023-02-14T17:43:03.825Z,54429.66
2023-02-14T17:45:32.869Z,54899.00
2023-02-14T17:48:01.849Z,55014.34
2023-02-14T17:50:30.860Z,54811.47
2023-02-14T17:52:59.781Z,54720.00
2023-02-14T17:55:28.525Z,54725.97
2023-02-14T17:57:58.673Z,54757.78
2023-02-14T18:00:27.577Z,54737.88
2023-02-14T18:02:56.136Z,54712.03
2023-02-14T18:05:24.574Z,54761.75
2023-02-14T18:07:53.035Z,54735.91
2023-02-14T18:10:22.095Z,54777.66
2023-02-14T18:12:50.654Z,54791.59
2023-02-14T18:15:20.953Z,54771.69
2023-02-14T18:17:50.892Z,54747.84
2023-02-14T18:20:19.557Z,54783.63
2023-02-14T18:22:48.024Z,54914.91
2023-02-14T18:25:16.984Z,54885.06
2023-02-14T18:27:45.441Z,54859.22
2023-02-14T18:30:14.718Z,54849.25
2023-02-14T18:32:44.845Z,54879.09
2023-02-14T18:35:14.133Z,54897.00
2023-02-14T18:37:43.234Z,54974.56
2023-02-14T18:40:20.202Z,55072.03
2023-02-14T18:42:48.630Z,55161.53
2023-02-14T18:45:17.479Z,55034.22
2023-02-14T18:47:47.433Z,54944.72
2023-02-14T18:50:15.883Z,55014.34
2023-02-14T18:52:44.501Z,55064.06
2023-02-14T18:55:13.541Z,55068.03
2023-02-14T18:57:41.987Z,55068.03
2023-02-14T19:00:12.170Z,55123.75
2023-02-14T19:02:40.736Z,55257.00
2023-02-14T19:05:10.983Z,55296.78
2023-02-14T19:07:39.468Z,55175.44
2023-02-14T19:10:09.250Z,55237.13
2023-02-14T19:12:37.693Z,55300.75
2023-02-14T19:15:07.108Z,55352.47
2023-02-14T19:17:36.287Z,55380.34
2023-02-14T19:20:08.722Z,55404.19
2023-02-14T19:22:42.179Z,55316.69
2023-02-14T19:25:10.802Z,55352.47
2023-02-14T19:27:40.158Z,55225.19
2023-02-14T19:30:10.805Z,55434.03
2023-02-14T19:32:39.193Z,55527.53
2023-02-14T19:35:08.652Z,55521.56
2023-02-14T19:37:37.068Z,55599.16
2023-02-14T19:40:10.364Z,55525.53
2023-02-14T19:42:38.931Z,55662.81
2023-02-14T19:45:07.856Z,55611.09
2023-02-14T19:47:46.653Z,55666.78
2023-02-14T19:50:15.839Z,55601.13
2023-02-14T19:52:44.666Z,55662.81
2023-02-14T19:55:22.185Z,55611.09
2023-02-14T19:57:50.906Z,55585.22
2023-02-14T20:00:21.037Z,55857.75
2023-02-14T20:02:49.671Z,55833.88
2023-02-14T20:05:19.158Z,55855.78
2023-02-14T20:07:51.954Z,55778.19
2023-02-14T20:10:22.289Z,55833.88
2023-02-14T20:12:50.934Z,55945.31
2023-02-14T20:15:19.505Z,56050.75
2023-02-14T20:17:48.318Z,56070.66
2023-02-14T20:20:16.874Z,55827.91
2023-02-14T20:22:45.436Z,55881.63
2023-02-14T20:25:14.021Z,55933.38
2023-02-14T20:27:44.081Z,56006.97
2023-02-14T20:30:20.785Z,56188.03
2023-02-14T20:32:49.583Z,56347.19
2023-02-14T20:35:18.322Z,56390.97
2023-02-14T20:37:49.135Z,56243.75
2023-02-14T20:40:19.470Z,56196.00
2023-02-14T20:42:51.285Z,56653.63
2023-02-14T20:45:19.772Z,56597.91
2023-02-14T20:47:49.498Z,56476.53
2023-02-14T20:50:18.356Z,56400.94
2023-02-14T20:52:46.889Z,56693.44
2023-02-14T20:55:15.764Z,56814.81
2023-02-14T20:57:44.267Z,57013.81
2023-02-14T21:00:15.263Z,56860.59
2023-02-14T21:02:43.762Z,56828.75
2023-02-14T21:05:12.146Z,57041.69
2023-02-14T21:07:40.716Z,57159.09
2023-02-14T21:10:09.302Z,57505.44
2023-02-14T21:12:38.651Z,57445.72
2023-02-14T21:15:08.393Z,57272.56
2023-02-14T21:17:38.937Z,57206.88
2023-02-14T21:20:10.731Z,56968.06
2023-02-14T21:22:39.935Z,56940.19
2023-02-14T21:25:09.086Z,57013.81
2023-02-14T21:27:38.208Z,56860.59
2023-02-14T21:30:08.428Z,56802.88
2023-02-14T21:32:38.480Z,56751.16
2023-02-14T21:35:07.728Z,57123.28
2023-02-14T21:37:36.218Z,57238.72
2023-02-14T21:40:05.111Z,57163.09
2023-02-14T21:42:33.617Z,57111.34
2023-02-14T21:45:19.769Z,57260.63
2023-02-14T21:48:09.713Z,57282.50
2023-02-14T21:50:38.151Z,57206.88
2023-02-14T21:53:07.815Z,57429.78
2023-02-14T21:55:38.587Z,58142.41
2023-02-14T21:58:07.205Z,57573.09
2023-02-14T22:00:35.844Z,57409.88
2023-02-14T22:03:05.918Z,57604.94
2023-02-14T22:05:34.380Z,57648.75
2023-02-14T22:08:03.003Z,57784.09
2023-02-14T22:10:31.634Z,57672.63
2023-02-14T22:13:00.139Z,58198.16
2023-02-14T22:15:28.635Z,57979.19
2023-02-14T22:17:57.309Z,57748.25
2023-02-14T22:20:27.061Z,57899.56
2023-02-14T22:22:55.504Z,57610.91
2023-02-14T22:25:25.704Z,57612.91
2023-02-14T22:27:55.276Z,57897.56
2023-02-14T22:30:26.430Z,57772.16
2023-02-14T22:32:55.056Z,57955.28
2023-02-14T22:35:23.571Z,58056.81
2023-02-14T22:37:53.478Z,58212.09
2023-02-14T22:40:21.854Z,58072.75
2023-02-14T22:42:50.301Z,58026.94
2023-02-14T22:45:18.892Z,57861.72
2023-02-14T22:47:47.409Z,58309.66
2023-02-14T22:50:15.935Z,58255.91
2023-02-14T22:52:44.674Z,59289.31
2023-02-14T22:55:14.457Z,59831.03
2023-02-14T22:57:42.950Z,59645.78
2023-02-14T23:00:12.076Z,59281.34
2023-02-14T23:02:40.771Z,58801.44
2023-02-14T23:05:09.849Z,58759.63
2023-02-14T23:07:38.249Z,58819.34
2023-02-14T23:10:08.473Z,59151.91
2023-02-14T23:12:55.721Z,58676.00
2023-02-14T23:15:41.840Z,58668.03
2023-02-14T23:18:30.815Z,58944.81
2023-02-14T23:21:16.932Z,59199.69
2023-02-14T23:23:45.387Z,59374.94
2023-02-14T23:26:14.516Z,58616.25
2023-02-14T23:28:44.722Z,58831.28
2023-02-14T23:31:13.215Z,59177.78
2023-02-14T23:33:41.660Z,59060.28
2023-02-14T23:36:10.149Z,59237.53
2023-02-14T23:38:38.547Z,59707.53
2023-02-14T23:41:27.840Z,59456.59
2023-02-14T23:43:57.847Z,59257.44
2023-02-14T23:46:26.310Z,58711.81
2023-02-14T23:48:54.839Z,58634.19
2023-02-14T23:51:23.358Z,58554.53
2023-02-14T23:53:54.337Z,59066.25
2023-02-14T23:56:22.842Z,60032.19
2023-02-14T23:58:51.340Z,60217.44
